This is the latest recevied weather packets stored in our database for station/object KE8ZLU. If no packets are shown the sender has not sent any weather packets the latest 1 day(s).
| Time | Temp. | Humidity | Pressure | Rain* | Wind** | Luminosity | Snow |
|---|---|---|---|---|---|---|---|
| 1778019311 | 11.11° C | 46% | 1009.5 hPa | 0 mm | 1.79 m/s, 262° | 93 W/m² | - |
| 1778019008 | 11.11° C | 47% | 1009.5 hPa | 0 mm | 4.02 m/s, 288° | 97 W/m² | - |
| 1778018704 | 11.11° C | 44% | 1009.6 hPa | 0 mm | 2.68 m/s, 275° | 100 W/m² | - |
| 1778018402 | 11.11° C | 46% | 1009.6 hPa | 0 mm | 1.79 m/s, 269° | 112 W/m² | - |
| 1778018100 | 11.11° C | 43% | 1009.5 hPa | 0 mm | 4.02 m/s, 274° | 116 W/m² | - |
| 1778017798 | 11.11° C | 45% | 1009.4 hPa | 0 mm | 4.02 m/s, 293° | 118 W/m² | - |
| 1778017496 | 11.67° C | 43% | 1009.3 hPa | 0 mm | 4.92 m/s, 300° | 121 W/m² | - |
| 1778017192 | 11.67° C | 47% | 1009.3 hPa | 0 mm | 2.68 m/s, 294° | 128 W/m² | - |
| 1778016890 | 11.67° C | 46% | 1009.1 hPa | 0 mm | 2.68 m/s, 272° | 131 W/m² | - |
| 1778016586 | 11.67° C | 47% | 1009.4 hPa | 0 mm | 3.58 m/s, 279° | 143 W/m² | - |
| 1778016283 | 11.67° C | 48% | 1009.4 hPa | 0 mm | 1.79 m/s, 289° | 167 W/m² | - |
| 1778015979 | 11.67° C | 47% | 1009.5 hPa | 0 mm | 4.02 m/s, 276° | 186 W/m² | - |
| 1778015677 | 11.67° C | 48% | 1009.5 hPa | 0 mm | 4.02 m/s, 287° | 225 W/m² | - |
| 1778015373 | 11.67° C | 51% | 1009.5 hPa | 0 mm | 2.24 m/s, 266° | 193 W/m² | - |
| 1778015071 | 11.67° C | 50% | 1009.5 hPa | 0 mm | 2.24 m/s, 265° | 96 W/m² | - |
| 1778014767 | 11.67° C | 49% | 1009.3 hPa | 0 mm | 2.68 m/s, 265° | 95 W/m² | - |
| 1778014466 | 11.67° C | 50% | 1009.4 hPa | 0 mm | 2.24 m/s, 277° | 101 W/m² | - |
| 1778014162 | 11.67° C | 49% | 1009.3 hPa | 0 mm | 3.13 m/s, 287° | 117 W/m² | - |
| 1778013860 | 11.67° C | 52% | 1009.4 hPa | 0 mm | 0.89 m/s, 253° | 139 W/m² | - |
| 1778013557 | 11.67° C | 50% | 1009.7 hPa | 0 mm | 3.13 m/s, 217° | 137 W/m² | - |
| 1778013253 | 11.11° C | 50% | 1009.6 hPa | 0 mm | 3.13 m/s, 277° | 134 W/m² | - |
| 1778012950 | 11.11° C | 48% | 1009.5 hPa | 0 mm | 4.47 m/s, 266° | 123 W/m² | - |
| 1778012646 | 11.67° C | 51% | 1009.5 hPa | 0 mm | 3.58 m/s, 255° | 120 W/m² | - |
| 1778012343 | 11.67° C | 50% | 1009.5 hPa | 0 mm | 2.68 m/s, 256° | 171 W/m² | - |
| 1778012040 | 11.67° C | 53% | 1009.6 hPa | 0 mm | 0.89 m/s, 297° | 167 W/m² | - |
* Rain latest hour (hover to see other rain measurements)
** Current wind speed in m/s (hover to see current wind gust speed)